createdAt,value
2023-06-11T00:01:09.925Z,96816.44
2023-06-11T00:03:58.150Z,96815.85
2023-06-11T00:06:26.384Z,96813.38
2023-06-11T00:08:56.361Z,96817.34
2023-06-11T00:11:24.380Z,96818.90
2023-06-11T00:13:54.287Z,96817.92
2023-06-11T00:16:22.266Z,96816.81
2023-06-11T00:18:50.165Z,96819.12
2023-06-11T00:21:18.200Z,96816.02
2023-06-11T00:23:46.038Z,96813.70
2023-06-11T00:26:13.911Z,96812.27
2023-06-11T00:28:41.824Z,96812.59
2023-06-11T00:31:09.857Z,96808.60
2023-06-11T00:33:37.908Z,96807.16
2023-06-11T00:36:06.169Z,96807.83
2023-06-11T00:38:34.614Z,96805.23
2023-06-11T00:41:02.391Z,96809.77
2023-06-11T00:43:32.193Z,96809.72
2023-06-11T00:46:03.674Z,96808.70
2023-06-11T00:48:31.892Z,96809.67
2023-06-11T00:51:00.037Z,96810.95
2023-06-11T00:53:27.968Z,96813.98
2023-06-11T00:55:56.437Z,96814.02
2023-06-11T00:58:24.890Z,96816.42
2023-06-11T01:00:58.099Z,96813.60
2023-06-11T01:03:28.801Z,96807.05
2023-06-11T01:06:03.888Z,96806.09
2023-06-11T01:08:36.324Z,96807.14
2023-06-11T01:11:04.300Z,96808.02
2023-06-11T01:13:32.140Z,96806.79
2023-06-11T01:16:11.400Z,96806.34
2023-06-11T01:18:54.546Z,96804.44
2023-06-11T01:21:30.238Z,96809.11
2023-06-11T01:24:31.018Z,96810.38
2023-06-11T01:27:10.992Z,96807.94
2023-06-11T01:29:46.674Z,96804.88
2023-06-11T01:32:18.815Z,96806.41
2023-06-11T01:34:46.717Z,96799.92
2023-06-11T01:37:16.002Z,96804.31
2023-06-11T01:39:46.924Z,96803.63
2023-06-11T01:42:14.835Z,96805.08
2023-06-11T01:44:42.715Z,96805.77
2023-06-11T01:47:10.833Z,96808.17
2023-06-11T01:49:38.603Z,96806.39
2023-06-11T01:52:08.020Z,96803.94
2023-06-11T01:54:36.416Z,96802.06
2023-06-11T01:57:04.600Z,96799.73
2023-06-11T01:59:32.473Z,96797.65
2023-06-11T02:02:00.391Z,96801.80
2023-06-11T02:04:28.278Z,96801.26
2023-06-11T02:06:56.195Z,96802.61
2023-06-11T02:09:24.195Z,96803.02
2023-06-11T02:11:52.036Z,96804.32
2023-06-11T02:14:20.083Z,96804.55
2023-06-11T02:16:47.918Z,96805.44
2023-06-11T02:19:15.866Z,96804.90
2023-06-11T02:21:44.519Z,96801.41
2023-06-11T02:24:12.479Z,96805.46
2023-06-11T02:26:40.517Z,96806.34
2023-06-11T02:29:08.343Z,96807.01
2023-06-11T02:31:36.225Z,96810.88
2023-06-11T02:34:04.164Z,96808.61
2023-06-11T02:36:31.973Z,96810.21
2023-06-11T02:38:59.885Z,96809.05
2023-06-11T02:41:28.085Z,96809.53
2023-06-11T02:43:55.926Z,96809.66
2023-06-11T02:46:23.935Z,96810.64
2023-06-11T02:48:51.943Z,96813.16
2023-06-11T02:51:19.965Z,96811.17
2023-06-11T02:53:47.968Z,96812.89
2023-06-11T02:56:15.892Z,96809.73
2023-06-11T02:58:45.570Z,96813.20
2023-06-11T03:01:13.413Z,96815.21
2023-06-11T03:03:41.406Z,96809.55
2023-06-11T03:06:09.584Z,96809.77
2023-06-11T03:08:37.506Z,96804.28
2023-06-11T03:11:05.335Z,96807.31
2023-06-11T03:13:33.290Z,96802.86
2023-06-11T03:16:01.230Z,96802.11
2023-06-11T03:18:29.156Z,96801.62
2023-06-11T03:20:57.314Z,96801.96
2023-06-11T03:23:25.230Z,96806.55
2023-06-11T03:25:52.971Z,96807.64
2023-06-11T03:28:20.729Z,96805.00
2023-06-11T03:30:48.643Z,96806.06
2023-06-11T03:33:16.568Z,96810.04
2023-06-11T03:35:44.349Z,96811.05
2023-06-11T03:38:12.202Z,96811.73
2023-06-11T03:40:40.090Z,96810.32
2023-06-11T03:43:07.876Z,96812.24
2023-06-11T03:45:35.851Z,96820.30
2023-06-11T03:48:05.479Z,96820.59
2023-06-11T03:50:33.411Z,96818.90
2023-06-11T03:53:01.618Z,96818.52
2023-06-11T03:55:30.966Z,96819.75
2023-06-11T03:57:59.189Z,96818.71
2023-06-11T04:00:32.052Z,96814.61
2023-06-11T04:03:01.125Z,96815.14
2023-06-11T04:05:29.365Z,96814.50
2023-06-11T04:07:57.159Z,96815.08
2023-06-11T04:10:25.133Z,96816.80
2023-06-11T04:12:53.201Z,96818.70
2023-06-11T04:15:21.337Z,96818.52
2023-06-11T04:17:49.221Z,96819.92
2023-06-11T04:20:17.032Z,96818.08
2023-06-11T04:22:45.593Z,96816.45
2023-06-11T04:25:18.174Z,96814.33
2023-06-11T04:27:49.359Z,96814.15
2023-06-11T04:30:17.848Z,96816.52
2023-06-11T04:32:46.137Z,96817.10
2023-06-11T04:35:16.312Z,96815.31
2023-06-11T04:37:44.703Z,96815.06
2023-06-11T04:40:12.701Z,96815.10
2023-06-11T04:42:43.356Z,96817.52
2023-06-11T04:45:12.506Z,96816.02
2023-06-11T04:47:41.814Z,96815.79
2023-06-11T04:50:10.050Z,96815.23
2023-06-11T04:52:44.146Z,96816.78
2023-06-11T04:55:13.768Z,96818.94
2023-06-11T04:57:42.945Z,96821.35
2023-06-11T05:00:12.375Z,96822.30
2023-06-11T05:02:44.943Z,96829.41
2023-06-11T05:05:14.492Z,96828.45
2023-06-11T05:07:43.055Z,96828.13
2023-06-11T05:10:11.239Z,96830.54
2023-06-11T05:12:39.275Z,96830.80
2023-06-11T05:15:08.228Z,96829.22
2023-06-11T05:17:37.132Z,96830.91
2023-06-11T05:20:06.612Z,96830.45
2023-06-11T05:22:35.671Z,96832.97
2023-06-11T05:25:03.960Z,96834.64
2023-06-11T05:27:33.101Z,96833.18
2023-06-11T05:30:01.760Z,96834.38
2023-06-11T05:32:32.684Z,96832.95
2023-06-11T05:35:00.635Z,96832.59
2023-06-11T05:37:28.503Z,96835.94
2023-06-11T05:39:56.462Z,96839.85
2023-06-11T05:42:24.389Z,96840.71
2023-06-11T05:44:52.244Z,96843.56
2023-06-11T05:47:20.089Z,96841.80
2023-06-11T05:49:48.101Z,96845.19
2023-06-11T05:52:16.063Z,96848.14
2023-06-11T05:54:44.025Z,96846.80
2023-06-11T05:57:28.203Z,96851.53
2023-06-11T05:59:56.055Z,96854.55
2023-06-11T06:02:24.106Z,96850.64
2023-06-11T06:04:52.396Z,96856.42
2023-06-11T06:07:20.340Z,96854.38
2023-06-11T06:09:48.218Z,96854.59
2023-06-11T06:12:17.043Z,96854.14
2023-06-11T06:14:44.856Z,96854.81
2023-06-11T06:17:12.749Z,96860.84
2023-06-11T06:19:40.601Z,96864.48
2023-06-11T06:22:08.787Z,96858.23
2023-06-11T06:24:36.798Z,96855.69
2023-06-11T06:27:05.188Z,96855.57
2023-06-11T06:29:34.068Z,96856.15
2023-06-11T06:32:02.195Z,96854.45
2023-06-11T06:34:30.433Z,96857.11
2023-06-11T06:36:58.341Z,96851.95
2023-06-11T06:39:26.246Z,96849.98
2023-06-11T06:41:54.024Z,96847.61
2023-06-11T06:44:21.840Z,96846.10
2023-06-11T06:46:50.306Z,96844.43
2023-06-11T06:49:18.292Z,96846.58
2023-06-11T06:51:46.166Z,96850.14
2023-06-11T06:54:14.438Z,96854.12
2023-06-11T06:56:42.510Z,96854.48
2023-06-11T06:59:10.624Z,96857.76
2023-06-11T07:01:38.512Z,96861.77
2023-06-11T07:04:06.492Z,96863.15
2023-06-11T07:06:34.403Z,96864.16
2023-06-11T07:09:04.393Z,96861.70
2023-06-11T07:11:32.377Z,96860.20
2023-06-11T07:14:00.433Z,96858.18
2023-06-11T07:16:28.472Z,96855.98
2023-06-11T07:18:56.404Z,96857.20
2023-06-11T07:21:24.670Z,96856.00
2023-06-11T07:23:52.754Z,96855.97
2023-06-11T07:26:20.660Z,96854.09
2023-06-11T07:28:48.465Z,96852.27
2023-06-11T07:31:16.443Z,96849.57
2023-06-11T07:33:45.500Z,96848.98
2023-06-11T07:36:13.335Z,96848.48
2023-06-11T07:38:41.653Z,96848.75
2023-06-11T07:41:09.640Z,96844.88
2023-06-11T07:43:37.657Z,96838.80
2023-06-11T07:46:06.008Z,96839.79
2023-06-11T07:48:33.920Z,96841.46
2023-06-11T07:51:01.865Z,96843.69
2023-06-11T07:53:29.922Z,96844.25
2023-06-11T07:55:58.497Z,96847.18
2023-06-11T07:58:26.794Z,96847.28
2023-06-11T08:00:54.732Z,96847.18
2023-06-11T08:03:23.145Z,96844.05
2023-06-11T08:05:51.795Z,96841.48
2023-06-11T08:08:19.846Z,96838.62
2023-06-11T08:10:51.766Z,96842.20
2023-06-11T08:13:23.026Z,96843.17
2023-06-11T08:15:51.779Z,96840.66
2023-06-11T08:18:20.151Z,96841.73
2023-06-11T08:20:48.609Z,96842.63
2023-06-11T08:23:16.410Z,96842.02
2023-06-11T08:25:44.425Z,96840.16
2023-06-11T08:28:12.446Z,96841.56
2023-06-11T08:30:40.372Z,96833.80
2023-06-11T08:33:08.410Z,96834.86
2023-06-11T08:35:36.417Z,96838.46
2023-06-11T08:38:04.888Z,96839.66
2023-06-11T08:40:39.811Z,96835.23
2023-06-11T08:43:11.418Z,96833.94
2023-06-11T08:45:39.459Z,96828.59
2023-06-11T08:48:09.600Z,96828.50
2023-06-11T08:50:39.050Z,96825.10
2023-06-11T08:53:08.687Z,96828.80
2023-06-11T08:55:36.509Z,96822.65
2023-06-11T08:58:05.192Z,96820.52
2023-06-11T09:00:33.194Z,96821.95
2023-06-11T09:03:03.208Z,96817.01
2023-06-11T09:05:34.631Z,96816.98
2023-06-11T09:08:08.563Z,96813.05
2023-06-11T09:10:50.365Z,96808.38
2023-06-11T09:13:19.554Z,96804.58
2023-06-11T09:15:49.633Z,96802.56
2023-06-11T09:18:23.887Z,96802.11
2023-06-11T09:20:57.100Z,96803.84
2023-06-11T09:23:38.618Z,96809.84
2023-06-11T09:26:06.570Z,96811.15
2023-06-11T09:28:36.648Z,96811.99
2023-06-11T09:31:05.886Z,96812.29
2023-06-11T09:33:34.317Z,96810.67
2023-06-11T09:36:02.803Z,96807.19
2023-06-11T09:38:35.754Z,96808.12
2023-06-11T09:41:08.181Z,96809.04
2023-06-11T09:43:36.345Z,96807.93
2023-06-11T09:46:04.504Z,96808.87
2023-06-11T09:48:32.731Z,96804.34
2023-06-11T09:51:03.869Z,96803.55
2023-06-11T09:53:35.911Z,96801.18
2023-06-11T09:56:11.796Z,96791.58
2023-06-11T09:58:41.977Z,96789.02
2023-06-11T10:01:12.646Z,96788.86
2023-06-11T10:03:41.735Z,96784.27
2023-06-11T10:06:17.321Z,96783.09
2023-06-11T10:08:49.785Z,96782.07
2023-06-11T10:11:23.894Z,96777.36
2023-06-11T10:13:59.806Z,96775.98
2023-06-11T10:16:29.060Z,96776.70
2023-06-11T10:19:08.026Z,96775.04
2023-06-11T10:21:51.717Z,96776.63
2023-06-11T10:24:25.197Z,96773.84
2023-06-11T10:27:08.702Z,96773.79
2023-06-11T10:29:43.527Z,96777.19
2023-06-11T10:32:29.525Z,96778.47
2023-06-11T10:35:04.714Z,96777.06
2023-06-11T10:37:34.404Z,96774.52
2023-06-11T10:40:03.491Z,96778.23
2023-06-11T10:42:40.077Z,96779.88
2023-06-11T10:45:12.863Z,96776.14
2023-06-11T10:47:41.985Z,96776.17
2023-06-11T10:50:15.880Z,96776.45
2023-06-11T10:52:49.792Z,96780.95
2023-06-11T10:55:22.111Z,96779.95
2023-06-11T10:58:00.477Z,96778.76
2023-06-11T11:00:34.000Z,96776.54
2023-06-11T11:03:05.082Z,96774.77
2023-06-11T11:05:33.485Z,96777.27
2023-06-11T11:08:02.198Z,96769.67
2023-06-11T11:10:30.643Z,96769.48
2023-06-11T11:12:59.757Z,96769.36
2023-06-11T11:15:30.355Z,96767.04
2023-06-11T11:17:58.465Z,96761.69
2023-06-11T11:20:27.002Z,96762.05
2023-06-11T11:22:57.362Z,96761.77
2023-06-11T11:25:31.355Z,96762.88
2023-06-11T11:27:59.753Z,96758.29
2023-06-11T11:30:29.524Z,96755.10
2023-06-11T11:32:58.597Z,96750.40
2023-06-11T11:35:27.826Z,96748.73
2023-06-11T11:37:56.223Z,96749.98
2023-06-11T11:40:24.647Z,96745.17
2023-06-11T11:42:57.259Z,96745.41
2023-06-11T11:45:33.131Z,96744.58
2023-06-11T11:48:04.925Z,96741.13
2023-06-11T11:50:34.847Z,96738.52
2023-06-11T11:53:04.658Z,96738.34
2023-06-11T11:55:34.844Z,96742.05
2023-06-11T11:58:07.771Z,96744.34
2023-06-11T12:00:38.579Z,96748.39
2023-06-11T12:03:09.453Z,96749.63
2023-06-11T12:05:38.660Z,96747.80
2023-06-11T12:08:07.585Z,96743.78
2023-06-11T12:10:35.732Z,96746.79
2023-06-11T12:13:04.423Z,96747.50
2023-06-11T12:15:32.359Z,96747.52
2023-06-11T12:18:00.295Z,96748.61
2023-06-11T12:20:29.578Z,96747.40
2023-06-11T12:22:57.590Z,96756.06
2023-06-11T12:25:26.927Z,96758.99
2023-06-11T12:27:55.639Z,96761.09
2023-06-11T12:30:23.821Z,96763.67
2023-06-11T12:32:52.801Z,96761.80
2023-06-11T12:35:20.917Z,96757.06
2023-06-11T12:37:48.859Z,96758.10
2023-06-11T12:40:17.755Z,96763.26
2023-06-11T12:42:45.928Z,96763.05
2023-06-11T12:45:13.918Z,96761.48
2023-06-11T12:47:42.475Z,96752.69
2023-06-11T12:50:10.968Z,96742.84
2023-06-11T12:52:40.958Z,96738.52
2023-06-11T12:55:09.442Z,96744.82
2023-06-11T12:57:37.200Z,96743.32
2023-06-11T13:00:06.490Z,96742.16
2023-06-11T13:02:34.571Z,96744.27
2023-06-11T13:05:02.842Z,96751.96
2023-06-11T13:07:31.020Z,96753.18
2023-06-11T13:09:59.122Z,96754.08
2023-06-11T13:12:28.646Z,96752.60
2023-06-11T13:14:56.787Z,96759.63
2023-06-11T13:17:24.717Z,96760.80
2023-06-11T13:19:55.823Z,96762.15
2023-06-11T13:22:23.986Z,96762.18
2023-06-11T13:24:51.976Z,96769.90
2023-06-11T13:27:19.809Z,96776.80
2023-06-11T13:29:47.880Z,96781.31
2023-06-11T13:32:16.993Z,96784.45
2023-06-11T13:34:44.970Z,96787.83
2023-06-11T13:37:13.473Z,96790.02
2023-06-11T13:39:41.653Z,96793.43
2023-06-11T13:42:11.547Z,96804.20
2023-06-11T13:44:39.434Z,96807.22
2023-06-11T13:47:07.874Z,96812.13
2023-06-11T13:49:36.040Z,96817.35
2023-06-11T13:52:04.346Z,96813.49
2023-06-11T13:54:34.432Z,96809.70
2023-06-11T13:57:02.601Z,96803.92
2023-06-11T13:59:32.484Z,96806.14
2023-06-11T14:02:02.682Z,96803.67
2023-06-11T14:04:31.187Z,96807.41
2023-06-11T14:06:59.294Z,96809.45
2023-06-11T14:09:27.438Z,96821.70
2023-06-11T14:11:55.436Z,96830.07
2023-06-11T14:14:24.408Z,96830.84
2023-06-11T14:16:52.840Z,96828.83
2023-06-11T14:19:20.936Z,96825.61
2023-06-11T14:21:48.893Z,96832.86
2023-06-11T14:24:17.983Z,96828.61
2023-06-11T14:26:46.548Z,96827.31
2023-06-11T14:29:14.579Z,96820.06
2023-06-11T14:31:42.530Z,96819.23
2023-06-11T14:34:10.616Z,96820.11
2023-06-11T14:36:38.633Z,96825.31
2023-06-11T14:39:06.545Z,96829.84
2023-06-11T14:41:34.532Z,96827.67
2023-06-11T14:44:02.897Z,96836.85
2023-06-11T14:46:30.914Z,96828.73
2023-06-11T14:48:58.823Z,96819.20
2023-06-11T14:51:27.768Z,96818.76
2023-06-11T14:53:55.761Z,96822.11
2023-06-11T14:56:23.892Z,96828.59
2023-06-11T14:58:51.818Z,96832.54
2023-06-11T15:01:19.727Z,96835.14
2023-06-11T15:03:47.749Z,96830.89
2023-06-11T15:06:16.169Z,96833.31
2023-06-11T15:08:44.039Z,96832.73
2023-06-11T15:11:11.815Z,96835.83
2023-06-11T15:13:39.763Z,96846.88
2023-06-11T15:16:07.785Z,96851.71
2023-06-11T15:18:35.934Z,96865.04
2023-06-11T15:21:04.011Z,96879.87
2023-06-11T15:23:31.875Z,96891.96
2023-06-11T15:25:59.831Z,96899.39
2023-06-11T15:28:27.766Z,96898.10
2023-06-11T15:30:55.913Z,96897.30
2023-06-11T15:33:23.993Z,96894.86
2023-06-11T15:35:51.981Z,96894.27
2023-06-11T15:38:19.873Z,96892.42
2023-06-11T15:40:47.674Z,96893.70
2023-06-11T15:43:15.597Z,96889.39
2023-06-11T15:45:43.506Z,96882.20
2023-06-11T15:48:11.458Z,96882.33
2023-06-11T15:50:39.537Z,96879.27
2023-06-11T15:53:07.462Z,96881.06
2023-06-11T15:55:36.066Z,96885.84
2023-06-11T15:58:06.554Z,96883.46
2023-06-11T16:00:36.076Z,96880.92
2023-06-11T16:03:04.520Z,96884.10
2023-06-11T16:05:32.729Z,96883.85
2023-06-11T16:08:00.602Z,96881.71
2023-06-11T16:10:28.583Z,96881.52
2023-06-11T16:12:56.658Z,96882.41
2023-06-11T16:15:24.573Z,96884.48
2023-06-11T16:17:52.502Z,96885.81
2023-06-11T16:20:20.427Z,96890.46
2023-06-11T16:22:48.378Z,96897.70
2023-06-11T16:25:16.257Z,96902.36
2023-06-11T16:27:44.732Z,96910.48
2023-06-11T16:30:13.752Z,96912.86
2023-06-11T16:32:45.666Z,96916.04
2023-06-11T16:35:13.981Z,96924.01
2023-06-11T16:37:42.002Z,96927.98
2023-06-11T16:40:10.103Z,96926.36
2023-06-11T16:42:37.929Z,96927.73
2023-06-11T16:45:06.540Z,96930.45
2023-06-11T16:47:34.589Z,96929.30
2023-06-11T16:50:02.866Z,96932.20
2023-06-11T16:52:32.537Z,96937.90
2023-06-11T16:55:02.370Z,96937.50
2023-06-11T16:57:30.713Z,96939.90
2023-06-11T16:59:59.570Z,96941.86
2023-06-11T17:02:27.589Z,96940.11
2023-06-11T17:04:56.030Z,96943.77
2023-06-11T17:07:23.886Z,96938.94
2023-06-11T17:09:51.812Z,96936.00
2023-06-11T17:12:19.829Z,96940.20
2023-06-11T17:14:47.848Z,96941.17
2023-06-11T17:17:15.805Z,96938.23
2023-06-11T17:19:46.325Z,96938.73
2023-06-11T17:22:14.317Z,96936.73
2023-06-11T17:24:42.194Z,96933.26
2023-06-11T17:27:10.180Z,96928.95
2023-06-11T17:29:38.032Z,96926.13
2023-06-11T17:32:06.507Z,96923.61
2023-06-11T17:34:34.478Z,96921.64
2023-06-11T17:37:02.577Z,96918.48
2023-06-11T17:39:30.607Z,96917.27
2023-06-11T17:41:58.562Z,96913.40
2023-06-11T17:44:26.480Z,96914.25
2023-06-11T17:46:54.478Z,96915.06
2023-06-11T17:49:22.463Z,96917.30
2023-06-11T17:51:51.602Z,96916.07
2023-06-11T17:54:19.488Z,96916.30
2023-06-11T17:56:47.337Z,96917.88
2023-06-11T17:59:15.255Z,96919.29
2023-06-11T18:01:43.534Z,96920.76
2023-06-11T18:04:11.357Z,96922.96
2023-06-11T18:06:39.327Z,96924.25
2023-06-11T18:09:07.480Z,96924.14
2023-06-11T18:11:36.687Z,96927.76
2023-06-11T18:14:04.575Z,96928.82
2023-06-11T18:16:34.774Z,96930.40
2023-06-11T18:19:03.894Z,96931.84
2023-06-11T18:21:31.836Z,96932.13
2023-06-11T18:23:59.819Z,96932.11
2023-06-11T18:26:27.775Z,96929.34
2023-06-11T18:28:55.985Z,96933.77
2023-06-11T18:31:24.949Z,96937.92
2023-06-11T18:33:55.044Z,96935.13
2023-06-11T18:36:22.803Z,96934.54
2023-06-11T18:38:50.836Z,96934.80
2023-06-11T18:41:21.135Z,96932.56
2023-06-11T18:43:49.045Z,96935.40
2023-06-11T18:46:17.004Z,96937.40
2023-06-11T18:48:47.541Z,96937.81
2023-06-11T18:51:15.565Z,96935.95
2023-06-11T18:53:43.792Z,96939.08
2023-06-11T18:56:11.679Z,96938.01
2023-06-11T18:58:39.772Z,96939.51
2023-06-11T19:01:08.088Z,96937.83
2023-06-11T19:03:39.343Z,96935.83
2023-06-11T19:06:08.899Z,96932.22
2023-06-11T19:08:36.924Z,96932.90
2023-06-11T19:11:04.797Z,96936.23
2023-06-11T19:13:32.695Z,96936.28
2023-06-11T19:16:00.619Z,96939.79
2023-06-11T19:18:28.437Z,96938.55
2023-06-11T19:20:56.804Z,96934.98
2023-06-11T19:23:26.536Z,96937.08
2023-06-11T19:25:56.132Z,96935.77
2023-06-11T19:28:23.983Z,96933.23
2023-06-11T19:30:51.841Z,96929.80
2023-06-11T19:33:19.816Z,96924.15
2023-06-11T19:35:47.725Z,96921.94
2023-06-11T19:38:15.776Z,96922.27
2023-06-11T19:40:43.787Z,96921.88
2023-06-11T19:43:11.788Z,96921.62
2023-06-11T19:45:39.609Z,96922.77
2023-06-11T19:48:07.497Z,96924.21
2023-06-11T19:50:35.828Z,96918.52
2023-06-11T19:53:03.972Z,96920.06
2023-06-11T19:55:32.385Z,96921.23
2023-06-11T19:58:00.750Z,96926.73
2023-06-11T20:00:29.195Z,96922.70
2023-06-11T20:02:57.167Z,96919.45
2023-06-11T20:05:26.063Z,96922.44
2023-06-11T20:07:53.930Z,96927.48
2023-06-11T20:10:24.705Z,96927.70
2023-06-11T20:12:52.478Z,96924.33
2023-06-11T20:15:20.651Z,96928.57
2023-06-11T20:17:48.586Z,96929.64
2023-06-11T20:20:16.592Z,96933.46
2023-06-11T20:22:45.955Z,96929.26
2023-06-11T20:25:13.866Z,96931.61
2023-06-11T20:27:41.735Z,96935.67
2023-06-11T20:30:10.322Z,96942.16
2023-06-11T20:32:38.523Z,96946.95
2023-06-11T20:35:07.269Z,96944.83
2023-06-11T20:37:35.796Z,96942.42
2023-06-11T20:40:05.617Z,96941.56
2023-06-11T20:42:33.451Z,96944.07
2023-06-11T20:45:01.294Z,96941.79
2023-06-11T20:47:29.655Z,96938.39
2023-06-11T20:49:57.768Z,96936.27
2023-06-11T20:52:27.462Z,96932.48
2023-06-11T20:54:55.616Z,96934.39
2023-06-11T20:57:23.904Z,96935.02
2023-06-11T20:59:51.929Z,96939.68
2023-06-11T21:02:20.189Z,96941.06
2023-06-11T21:04:48.051Z,96944.48
2023-06-11T21:07:16.654Z,96940.48
2023-06-11T21:09:44.517Z,96933.46
2023-06-11T21:12:13.404Z,96932.34
2023-06-11T21:14:41.257Z,96927.05
2023-06-11T21:17:09.200Z,96926.61
2023-06-11T21:19:36.959Z,96928.26
2023-06-11T21:22:05.434Z,96931.16
2023-06-11T21:24:33.263Z,96931.95
2023-06-11T21:27:01.151Z,96930.55
2023-06-11T21:29:29.102Z,96925.76
2023-06-11T21:31:57.165Z,96926.73
2023-06-11T21:34:25.133Z,96925.42
2023-06-11T21:36:53.017Z,96921.71
2023-06-11T21:39:20.952Z,96919.86
2023-06-11T21:41:50.535Z,96916.67
2023-06-11T21:44:20.435Z,96917.30
2023-06-11T21:46:48.289Z,96916.17
2023-06-11T21:49:16.298Z,96916.05
2023-06-11T21:51:46.195Z,96912.23
2023-06-11T21:54:14.145Z,96914.05
2023-06-11T21:56:41.906Z,96916.80
2023-06-11T21:59:09.707Z,96916.29
2023-06-11T22:01:37.901Z,96916.27
2023-06-11T22:04:06.511Z,96912.70
2023-06-11T22:06:34.751Z,96913.27
2023-06-11T22:09:02.588Z,96910.10
2023-06-11T22:11:31.737Z,96907.73
2023-06-11T22:13:59.674Z,96907.67
2023-06-11T22:16:29.101Z,96911.76
2023-06-11T22:18:58.228Z,96913.27
2023-06-11T22:21:26.146Z,96910.84
2023-06-11T22:23:56.645Z,96910.07
2023-06-11T22:26:24.675Z,96910.80
2023-06-11T22:28:52.664Z,96911.32
2023-06-11T22:31:20.640Z,96913.83
2023-06-11T22:33:48.788Z,96909.50
2023-06-11T22:36:16.690Z,96920.85
2023-06-11T22:38:44.849Z,96919.51
2023-06-11T22:41:12.668Z,96921.27
2023-06-11T22:43:41.089Z,96921.51
2023-06-11T22:46:08.995Z,96924.05
2023-06-11T22:48:37.102Z,96923.70
2023-06-11T22:51:11.205Z,96923.36
2023-06-11T22:53:39.632Z,96922.85
2023-06-11T22:56:08.114Z,96919.93
2023-06-11T22:58:36.085Z,96916.29
2023-06-11T23:01:04.162Z,96912.64
2023-06-11T23:03:32.266Z,96911.76
2023-06-11T23:06:00.636Z,96910.18
2023-06-11T23:08:28.990Z,96908.81
2023-06-11T23:10:56.898Z,96906.86
2023-06-11T23:13:24.992Z,96907.88
2023-06-11T23:15:52.884Z,96909.52
2023-06-11T23:18:21.016Z,96910.87
2023-06-11T23:20:50.341Z,96907.79
2023-06-11T23:23:18.583Z,96901.57
2023-06-11T23:25:50.574Z,96898.42
2023-06-11T23:28:19.526Z,96895.28
2023-06-11T23:30:47.380Z,96895.22
2023-06-11T23:33:15.290Z,96896.03
2023-06-11T23:35:43.357Z,96893.95
2023-06-11T23:38:11.281Z,96892.73
2023-06-11T23:40:39.185Z,96891.10
2023-06-11T23:43:07.111Z,96891.20
2023-06-11T23:45:35.060Z,96888.48
2023-06-11T23:48:03.032Z,96890.55
2023-06-11T23:50:31.162Z,96890.80
2023-06-11T23:52:59.557Z,96886.16
2023-06-11T23:55:27.627Z,96886.21
2023-06-11T23:58:19.680Z,96886.11
